Time,TemperatureF,DewpointF,PressureIn,WindDirection,WindDirectionDegrees,WindSpeedMPH,WindSpeedGustMPH,Humidity,HourlyPrecipIn,Conditions,Clouds,dailyrainin,SoftwareType,DateUTC
2013-05-08 00:02:00,46.0,38.0,29.98,ENE,78,0.0,3.0,73,0.00,,,0.00,,2013-05-08 04:02:00,
2013-05-08 00:13:00,46.0,38.0,29.98,ENE,78,0.0,3.0,73,0.00,,,0.00,,2013-05-08 04:13:00,
2013-05-08 00:23:00,46.0,37.0,29.98,NW,306,0.0,4.0,72,0.00,,,0.00,,2013-05-08 04:23:00,
2013-05-08 00:33:00,46.0,38.0,29.98,NW,306,0.0,2.0,73,0.00,,,0.00,,2013-05-08 04:33:00,
2013-05-08 00:42:00,46.0,38.0,29.98,NW,306,0.0,2.0,73,0.00,,,0.00,,2013-05-08 04:42:00,
2013-05-08 00:52:00,46.0,38.0,29.98,NW,306,0.0,1.0,74,0.00,,,0.00,,2013-05-08 04:52:00,
2013-05-08 01:02:00,46.0,40.0,29.98,NW,306,0.0,0.0,78,0.00,,,0.00,,2013-05-08 05:02:00,
2013-05-08 01:12:00,46.0,40.0,29.98,NW,306,0.0,0.0,78,0.00,,,0.00,,2013-05-08 05:12:00,
2013-05-08 01:22:00,45.0,40.0,29.98,WSW,250,0.0,2.0,81,0.00,,,0.00,,2013-05-08 05:22:00,
2013-05-08 01:32:00,44.0,40.0,29.98,South,173,0.0,5.0,85,0.00,,,0.00,,2013-05-08 05:32:00,
2013-05-08 01:42:00,44.0,40.0,29.98,South,173,0.0,5.0,85,0.00,,,0.00,,2013-05-08 05:42:00,
2013-05-08 01:52:00,44.0,40.0,29.98,South,180,0.0,3.0,85,0.00,,,0.00,,2013-05-08 05:52:00,
2013-05-08 02:01:00,44.0,40.0,29.98,South,180,0.0,1.0,85,0.00,,,0.00,,2013-05-08 06:01:00,
2013-05-08 02:12:00,44.0,40.0,29.98,South,180,0.0,1.0,85,0.00,,,0.00,,2013-05-08 06:12:00,
2013-05-08 02:21:00,45.0,41.0,29.98,South,180,0.0,1.0,85,0.00,,,0.00,,2013-05-08 06:21:00,
2013-05-08 02:32:00,45.0,40.0,29.97,South,180,0.0,1.0,81,0.00,,,0.00,,2013-05-08 06:32:00,
2013-05-08 02:42:00,45.0,40.0,29.97,South,180,0.0,1.0,81,0.00,,,0.00,,2013-05-08 06:42:00,
2013-05-08 02:52:00,46.0,38.0,29.96,South,180,0.0,1.0,73,0.00,,,0.00,,2013-05-08 06:52:00,
2013-05-08 03:02:00,48.0,36.0,29.96,South,180,0.0,1.0,62,0.00,,,0.00,,2013-05-08 07:02:00,
2013-05-08 03:11:00,48.0,36.0,29.96,South,180,0.0,1.0,62,0.00,,,0.00,,2013-05-08 07:11:00,
2013-05-08 03:21:00,49.0,32.0,29.96,South,180,0.0,1.0,52,0.00,,,0.00,,2013-05-08 07:21:00,
2013-05-08 03:32:00,50.0,32.0,29.96,South,180,0.0,1.0,50,0.00,,,0.00,,2013-05-08 07:32:00,
2013-05-08 03:42:00,50.0,32.0,29.96,South,180,0.0,1.0,50,0.00,,,0.00,,2013-05-08 07:42:00,
2013-05-08 03:52:00,51.0,30.0,29.96,South,180,0.0,2.0,45,0.00,,,0.00,,2013-05-08 07:52:00,
2013-05-08 04:01:00,54.0,26.0,29.96,SSE,154,1.0,7.0,34,0.00,,,0.00,,2013-05-08 08:01:00,
2013-05-08 04:11:00,54.0,26.0,29.96,SSE,154,1.0,7.0,34,0.00,,,0.00,,2013-05-08 08:11:00,
2013-05-08 04:21:00,56.0,27.0,29.95,South,174,0.0,5.0,33,0.00,,,0.00,,2013-05-08 08:21:00,
2013-05-08 04:32:00,58.0,29.0,29.95,SE,146,2.0,6.0,33,0.00,,,0.00,,2013-05-08 08:32:00,
2013-05-08 04:42:00,58.0,29.0,29.95,SE,146,2.0,6.0,33,0.00,,,0.00,,2013-05-08 08:42:00,
2013-05-08 04:51:00,57.0,32.0,29.95,South,186,1.0,5.0,38,0.00,,,0.00,,2013-05-08 08:51:00,
2013-05-08 05:02:00,54.0,31.0,29.95,SSE,167,1.0,5.0,42,0.00,,,0.00,,2013-05-08 09:02:00,
2013-05-08 05:11:00,54.0,31.0,29.95,SSE,167,1.0,5.0,42,0.00,,,0.00,,2013-05-08 09:11:00,
2013-05-08 05:21:00,53.0,31.0,29.94,SSE,168,1.0,4.0,43,0.00,,,0.00,,2013-05-08 09:21:00,
2013-05-08 05:32:00,54.0,31.0,29.95,SSE,164,1.0,4.0,42,0.00,,,0.00,,2013-05-08 09:32:00,
2013-05-08 05:42:00,54.0,31.0,29.95,SSE,164,1.0,4.0,42,0.00,,,0.00,,2013-05-08 09:42:00,
2013-05-08 05:52:00,54.0,31.0,29.94,SSE,157,0.0,3.0,41,0.00,,,0.00,,2013-05-08 09:52:00,
2013-05-08 06:02:00,54.0,31.0,29.94,SSE,157,0.0,3.0,42,0.00,,,0.00,,2013-05-08 10:02:00,
2013-05-08 06:12:00,54.0,31.0,29.94,SSE,157,0.0,3.0,42,0.00,,,0.00,,2013-05-08 10:12:00,
2013-05-08 06:22:00,54.0,33.0,29.95,SSE,157,0.0,3.0,44,0.00,,,0.00,,2013-05-08 10:22:00,
2013-05-08 06:33:00,53.0,32.0,29.95,SSE,157,0.0,2.0,44,0.00,,,0.00,,2013-05-08 10:33:00,
2013-05-08 06:42:00,53.0,32.0,29.95,SSE,157,0.0,2.0,44,0.00,,,0.00,,2013-05-08 10:42:00,
2013-05-08 06:52:00,53.0,33.0,29.95,SSE,157,0.0,3.0,47,0.00,,,0.00,,2013-05-08 10:52:00,
2013-05-08 07:02:00,53.0,33.0,29.94,SSE,157,0.0,5.0,47,0.00,,,0.00,,2013-05-08 11:02:00,
2013-05-08 07:11:00,53.0,33.0,29.94,SSE,157,0.0,5.0,47,0.00,,,0.00,,2013-05-08 11:11:00,
2013-05-08 07:22:00,53.0,35.0,29.95,SSE,159,0.0,3.0,50,0.00,,,0.00,,2013-05-08 11:22:00,
2013-05-08 07:32:00,53.0,34.0,29.95,SSE,159,0.0,2.0,48,0.00,,,0.00,,2013-05-08 11:32:00,
2013-05-08 07:42:00,53.0,34.0,29.95,SSE,159,0.0,2.0,48,0.00,,,0.00,,2013-05-08 11:42:00,
2013-05-08 07:52:00,55.0,34.0,29.95,SSE,159,0.0,2.0,45,0.00,,,0.00,,2013-05-08 11:52:00,
2013-05-08 08:01:00,57.0,35.0,29.95,SSE,159,0.0,2.0,44,0.00,,,0.00,,2013-05-08 12:01:00,
2013-05-08 08:11:00,57.0,35.0,29.95,SSE,159,0.0,2.0,44,0.00,,,0.00,,2013-05-08 12:11:00,
2013-05-08 08:21:00,60.0,36.0,29.95,South,186,1.0,4.0,40,0.00,,,0.00,,2013-05-08 12:21:00,
2013-05-08 08:32:00,62.0,38.0,29.96,South,190,0.0,2.0,41,0.00,,,0.00,,2013-05-08 12:32:00,
2013-05-08 08:41:00,62.0,38.0,29.96,South,190,0.0,2.0,41,0.00,,,0.00,,2013-05-08 12:41:00,
2013-05-08 08:51:00,64.0,39.0,29.96,South,190,1.0,3.0,39,0.00,,,0.00,,2013-05-08 12:51:00,
2013-05-08 09:01:00,65.0,37.0,29.96,South,190,1.0,4.0,35,0.00,,,0.00,,2013-05-08 13:01:00,
2013-05-08 09:11:00,65.0,37.0,29.96,South,190,1.0,4.0,35,0.00,,,0.00,,2013-05-08 13:11:00,
2013-05-08 09:21:00,66.0,38.0,29.96,South,190,0.0,2.0,35,0.00,,,0.00,,2013-05-08 13:21:00,
2013-05-08 09:32:00,67.0,39.0,29.96,South,190,0.0,3.0,36,0.00,,,0.00,,2013-05-08 13:32:00,
2013-05-08 09:42:00,67.0,39.0,29.96,South,190,0.0,3.0,36,0.00,,,0.00,,2013-05-08 13:42:00,
2013-05-08 09:52:00,69.0,39.0,29.96,South,190,0.0,1.0,34,0.00,,,0.00,,2013-05-08 13:52:00,
2013-05-08 10:02:00,70.0,40.0,29.97,South,184,0.0,3.0,33,0.00,,,0.00,,2013-05-08 14:02:00,
2013-05-08 10:11:00,70.0,40.0,29.97,South,184,0.0,3.0,33,0.00,,,0.00,,2013-05-08 14:11:00,
2013-05-08 10:21:00,71.0,36.0,29.96,South,184,0.0,2.0,28,0.00,,,0.00,,2013-05-08 14:21:00,
2013-05-08 10:32:00,72.0,37.0,29.96,South,179,0.0,4.0,28,0.00,,,0.00,,2013-05-08 14:32:00,
2013-05-08 10:42:00,72.0,37.0,29.96,South,179,0.0,4.0,28,0.00,,,0.00,,2013-05-08 14:42:00,
2013-05-08 10:51:00,73.0,37.0,29.96,ENE,64,0.0,6.0,27,0.00,,,0.00,,2013-05-08 14:51:00,
2013-05-08 11:02:00,72.0,36.0,29.96,NNE,16,2.0,5.0,27,0.00,,,0.00,,2013-05-08 15:02:00,
2013-05-08 11:11:00,72.0,36.0,29.96,NNE,16,2.0,5.0,27,0.00,,,0.00,,2013-05-08 15:11:00,
2013-05-08 11:21:00,72.0,36.0,29.97,NE,36,2.0,5.0,27,0.00,,,0.00,,2013-05-08 15:21:00,
2013-05-08 11:33:00,70.0,35.0,29.96,NE,34,3.0,5.0,28,0.00,,,0.00,,2013-05-08 15:33:00,
2013-05-08 11:42:00,70.0,35.0,29.96,NE,34,3.0,5.0,28,0.00,,,0.00,,2013-05-08 15:42:00,
2013-05-08 11:52:00,70.0,36.0,29.96,NE,38,2.0,5.0,29,0.00,,,0.00,,2013-05-08 15:52:00,
2013-05-08 12:03:00,69.0,40.0,29.96,NNE,28,2.0,5.0,35,0.00,,,0.00,,2013-05-08 16:03:00,
2013-05-08 12:12:00,69.0,40.0,29.96,NNE,28,2.0,5.0,35,0.00,,,0.00,,2013-05-08 16:12:00,
2013-05-08 12:23:00,69.0,38.0,29.96,NNE,28,2.0,6.0,32,0.00,,,0.00,,2013-05-08 16:23:00,
2013-05-08 12:33:00,69.0,39.0,29.96,NE,39,3.0,6.0,34,0.00,,,0.00,,2013-05-08 16:33:00,
2013-05-08 12:42:00,69.0,39.0,29.96,NE,39,3.0,6.0,34,0.00,,,0.00,,2013-05-08 16:42:00,
2013-05-08 12:52:00,70.0,38.0,29.97,NNE,18,2.0,8.0,31,0.00,,,0.00,,2013-05-08 16:52:00,
2013-05-08 13:02:00,71.0,36.0,29.96,North,10,2.0,7.0,28,0.00,,,0.00,,2013-05-08 17:02:00,
2013-05-08 13:12:00,71.0,36.0,29.96,North,10,2.0,7.0,28,0.00,,,0.00,,2013-05-08 17:12:00,
2013-05-08 13:22:00,71.0,36.0,29.97,NE,48,3.0,8.0,28,0.00,,,0.00,,2013-05-08 17:22:00,
2013-05-08 13:32:00,71.0,36.0,29.97,NE,48,3.0,8.0,28,0.00,,,0.00,,2013-05-08 17:32:00,
2013-05-08 13:41:00,71.0,36.0,29.97,NE,48,3.0,8.0,28,0.00,,,0.00,,2013-05-08 17:41:00,
2013-05-08 13:52:00,68.0,36.0,29.97,North,9,3.0,9.0,31,0.00,,,0.00,,2013-05-08 17:52:00,
2013-05-08 14:02:00,67.0,35.0,29.96,NNE,26,4.0,7.0,31,0.00,,,0.00,,2013-05-08 18:02:00,
2013-05-08 14:11:00,67.0,35.0,29.96,NNE,26,4.0,7.0,31,0.00,,,0.00,,2013-05-08 18:11:00,
2013-05-08 14:21:00,66.0,35.0,29.96,North,360,3.0,6.0,32,0.00,,,0.00,,2013-05-08 18:21:00,
2013-05-08 14:32:00,67.0,35.0,29.96,North,11,2.0,5.0,31,0.00,,,0.00,,2013-05-08 18:32:00,
2013-05-08 14:42:00,67.0,35.0,29.96,North,11,2.0,5.0,31,0.00,,,0.00,,2013-05-08 18:42:00,
2013-05-08 14:52:00,69.0,35.0,29.96,NNE,16,4.0,10.0,28,0.00,,,0.00,,2013-05-08 18:52:00,
2013-05-08 15:01:00,69.0,36.0,29.96,NE,44,4.0,9.0,30,0.00,,,0.00,,2013-05-08 19:01:00,
2013-05-08 15:11:00,69.0,36.0,29.96,NE,44,4.0,9.0,30,0.00,,,0.00,,2013-05-08 19:11:00,
2013-05-08 15:21:00,66.0,35.0,29.96,NNE,22,4.0,7.0,32,0.00,,,0.00,,2013-05-08 19:21:00,
2013-05-08 15:32:00,66.0,36.0,29.96,North,360,3.0,6.0,33,0.00,,,0.00,,2013-05-08 19:32:00,
2013-05-08 15:42:00,66.0,36.0,29.96,North,360,3.0,6.0,33,0.00,,,0.00,,2013-05-08 19:42:00,
2013-05-08 15:52:00,65.0,35.0,29.96,NNE,22,2.0,6.0,33,0.00,,,0.00,,2013-05-08 19:52:00,
2013-05-08 16:02:00,65.0,35.0,29.96,NNE,22,2.0,6.0,33,0.00,,,0.00,,2013-05-08 20:02:00,
2013-05-08 16:11:00,65.0,35.0,29.96,NNE,22,2.0,6.0,33,0.00,,,0.00,,2013-05-08 20:11:00,
2013-05-08 16:22:00,66.0,34.0,29.96,NNE,25,3.0,7.0,31,0.00,,,0.00,,2013-05-08 20:22:00,
2013-05-08 16:32:00,65.0,35.0,29.96,NNE,21,3.0,6.0,33,0.00,,,0.00,,2013-05-08 20:32:00,
2013-05-08 16:42:00,64.0,35.0,29.95,NE,45,1.0,6.0,34,0.00,,,0.00,,2013-05-08 20:42:00,
2013-05-08 16:51:00,64.0,35.0,29.95,NE,45,1.0,6.0,34,0.00,,,0.00,,2013-05-08 20:51:00,
2013-05-08 17:01:00,65.0,34.0,29.94,NE,45,1.0,5.0,32,0.00,,,0.00,,2013-05-08 21:01:00,
2013-05-08 17:12:00,65.0,34.0,29.94,NE,45,1.0,5.0,32,0.00,,,0.00,,2013-05-08 21:12:00,
2013-05-08 17:21:00,67.0,35.0,29.94,NE,35,1.0,5.0,30,0.00,,,0.00,,2013-05-08 21:21:00,
2013-05-08 17:33:00,68.0,34.0,29.93,NE,35,1.0,5.0,28,0.00,,,0.00,,2013-05-08 21:33:00,
2013-05-08 17:43:00,69.0,35.0,29.93,NE,52,1.0,5.0,29,0.00,,,0.00,,2013-05-08 21:43:00,
2013-05-08 17:52:00,69.0,35.0,29.93,NE,52,1.0,5.0,29,0.00,,,0.00,,2013-05-08 21:52:00,
2013-05-08 18:02:00,68.0,35.0,29.93,NE,52,2.0,4.0,30,0.00,,,0.00,,2013-05-08 22:02:00,
2013-05-08 18:12:00,68.0,35.0,29.93,NE,52,2.0,4.0,30,0.00,,,0.00,,2013-05-08 22:12:00,
2013-05-08 18:22:00,66.0,34.0,29.93,NE,52,2.0,4.0,31,0.00,,,0.00,,2013-05-08 22:22:00,
2013-05-08 18:33:00,64.0,36.0,29.93,NE,52,2.0,3.0,35,0.00,,,0.00,,2013-05-08 22:33:00,
2013-05-08 18:42:00,64.0,36.0,29.93,NE,52,1.0,3.0,35,0.00,,,0.00,,2013-05-08 22:42:00,
2013-05-08 18:52:00,64.0,36.0,29.93,NE,52,1.0,3.0,35,0.00,,,0.00,,2013-05-08 22:52:00,
2013-05-08 19:01:00,63.0,36.0,29.93,NE,52,0.0,2.0,36,0.00,,,0.00,,2013-05-08 23:01:00,
2013-05-08 19:11:00,63.0,36.0,29.93,NE,52,0.0,2.0,36,0.00,,,0.00,,2013-05-08 23:11:00,
2013-05-08 19:22:00,62.0,35.0,29.93,NE,52,0.0,2.0,37,0.00,,,0.00,,2013-05-08 23:22:00,
2013-05-08 19:32:00,61.0,36.0,29.93,NE,52,2.0,4.0,39,0.00,,,0.00,,2013-05-08 23:32:00,
2013-05-08 19:42:00,57.0,35.0,29.94,NE,52,0.0,4.0,43,0.00,,,0.00,,2013-05-08 23:42:00,
2013-05-08 19:52:00,57.0,35.0,29.94,NE,52,0.0,4.0,43,0.00,,,0.00,,2013-05-08 23:52:00,
2013-05-08 20:02:00,55.0,35.0,29.94,NE,52,1.0,5.0,46,0.00,,,0.00,,2013-05-09 00:02:00,
2013-05-08 20:12:00,55.0,35.0,29.94,NE,52,1.0,5.0,46,0.00,,,0.00,,2013-05-09 00:12:00,
2013-05-08 20:21:00,55.0,34.0,29.95,NE,52,0.0,2.0,45,0.00,,,0.00,,2013-05-09 00:21:00,
2013-05-08 20:32:00,54.0,34.0,29.95,NE,52,0.0,3.0,46,0.00,,,0.00,,2013-05-09 00:32:00,
2013-05-08 20:42:00,54.0,35.0,29.94,NE,52,0.0,2.0,49,0.00,,,0.00,,2013-05-09 00:42:00,
2013-05-08 20:52:00,54.0,35.0,29.94,NE,52,0.0,2.0,49,0.00,,,0.00,,2013-05-09 00:52:00,
2013-05-08 21:01:00,54.0,34.0,29.94,North,10,2.0,6.0,47,0.00,,,0.00,,2013-05-09 01:01:00,
2013-05-08 21:11:00,54.0,34.0,29.94,North,10,2.0,6.0,47,0.00,,,0.00,,2013-05-09 01:11:00,
2013-05-08 21:22:00,54.0,35.0,29.95,SSE,153,0.0,4.0,48,0.00,,,0.00,,2013-05-09 01:22:00,
2013-05-08 21:32:00,54.0,36.0,29.96,North,360,2.0,6.0,50,0.00,,,0.00,,2013-05-09 01:32:00,
2013-05-08 21:42:00,53.0,35.0,29.97,NNE,20,2.0,8.0,50,0.00,,,0.00,,2013-05-09 01:42:00,
2013-05-08 21:52:00,53.0,35.0,29.97,NNE,20,2.0,8.0,50,0.00,,,0.00,,2013-05-09 01:52:00,
2013-05-08 22:02:00,52.0,35.0,29.98,WNW,296,4.0,11.0,53,0.00,,,0.00,,2013-05-09 02:02:00,
2013-05-08 22:11:00,52.0,35.0,29.98,WNW,296,4.0,11.0,53,0.00,,,0.00,,2013-05-09 02:11:00,
2013-05-08 22:21:00,51.0,35.0,29.99,NNW,338,1.0,9.0,55,0.00,,,0.00,,2013-05-09 02:21:00,
2013-05-08 22:32:00,51.0,36.0,29.99,NNW,344,0.0,6.0,56,0.00,,,0.00,,2013-05-09 02:32:00,
2013-05-08 22:41:00,51.0,36.0,29.99,NNW,344,0.0,6.0,56,0.00,,,0.00,,2013-05-09 02:41:00,
2013-05-08 22:52:00,51.0,36.0,29.99,NNW,344,0.0,6.0,56,0.00,,,0.00,,2013-05-09 02:52:00,
2013-05-08 23:01:00,52.0,37.0,29.99,NNW,340,1.0,5.0,56,0.00,,,0.00,,2013-05-09 03:01:00,
2013-05-08 23:11:00,52.0,37.0,29.99,NNW,340,1.0,5.0,56,0.00,,,0.00,,2013-05-09 03:11:00,
2013-05-08 23:21:00,51.0,37.0,29.99,NNW,346,1.0,6.0,58,0.00,,,0.00,,2013-05-09 03:21:00,
2013-05-08 23:33:00,51.0,37.0,29.99,NW,315,1.0,7.0,58,0.00,,,0.00,,2013-05-09 03:33:00,
2013-05-08 23:43:00,51.0,37.0,29.99,NW,315,1.0,7.0,58,0.00,,,0.00,,2013-05-09 03:43:00,
2013-05-08 23:52:00,52.0,38.0,29.98,NW,320,0.0,4.0,58,0.00,,,0.00,,2013-05-09 03:52:00,